Time;durP1;ratioP1;P1;durP2;ratioP2;P2;SDS_P1;SDS_P2;PMS_P1;PMS_P2;Temp;Humidity;BMP_temperature;BMP_pressure;BME280_temperature;BME280_humidity;BME280_pressure;Samples;Min_cycle;Max_cycle;Signal;HPM_P1;HPM_P2
2022/09/19 00:01:11;;;;;;;23.67;1.75;;;9.70;99.90;;;;;;5045686;28;20094;-44
2022/09/19 00:03:38;;;;;;;21.90;1.60;;;10.30;99.90;;;;;;5045990;28;20049;-43
2022/09/19 00:06:05;;;;;;;20.08;1.98;;;9.70;99.90;;;;;;5046259;28;20041;-42
2022/09/19 00:08:31;;;;;;;30.02;2.38;;;9.90;99.90;;;;;;5045710;28;20055;-44
2022/09/19 00:11:01;;;;;;;20.27;1.23;;;10.30;99.90;;;;;;5045879;28;20049;-42
2022/09/19 00:13:27;;;;;;;23.48;1.35;;;10.30;99.90;;;;;;5045976;28;20687;-43
2022/09/19 00:15:53;;;;;;;16.65;1.73;;;10.10;99.90;;;;;;5045768;28;20041;-43
2022/09/19 00:18:19;;;;;;;20.75;2.22;;;10.90;99.90;;;;;;5045729;28;20052;-43
2022/09/19 00:20:45;;;;;;;19.83;1.30;;;10.10;99.90;;;;;;5045616;28;20047;-43
2022/09/19 00:26:02;;;;;;;11.88;1.60;;;9.90;99.90;;;;;;5049878;28;20076;-43
2022/09/19 00:28:29;;;;;;;18.77;1.70;;;9.90;99.90;;;;;;5031422;28;20116;-42
2022/09/19 00:30:55;;;;;;;16.50;1.60;;;10.00;99.90;;;;;;5049612;28;20562;-42
2022/09/19 00:33:22;;;;;;;22.48;1.40;;;10.00;99.90;;;;;;5049478;28;20048;-42
2022/09/19 00:35:54;;;;;;;14.73;2.13;;;10.10;99.90;;;;;;5049819;28;20040;-42
2022/09/19 00:38:24;;;;;;;18.58;2.45;;;10.10;99.90;;;;;;5049403;28;20102;-42
2022/09/19 00:40:51;;;;;;;15.82;1.20;;;10.10;99.90;;;;;;5049463;28;20044;-42
2022/09/19 00:43:18;;;;;;;17.05;1.13;;;10.20;99.90;;;;;;5048680;28;20128;-42
2022/09/19 00:45:45;;;;;;;18.13;1.10;;;10.10;99.90;;;;;;5049359;28;20122;-43
2022/09/19 00:48:13;;;;;;;30.70;2.15;;;10.60;99.90;;;;;;5049351;28;20052;-44
2022/09/19 00:50:40;;;;;;;18.40;1.30;;;10.60;99.90;;;;;;5049303;28;20050;-42
2022/09/19 00:53:13;;;;;;;10.95;1.40;;;10.70;99.90;;;;;;5049039;28;20475;-44
2022/09/19 00:55:40;;;;;;;19.20;2.45;;;10.20;99.90;;;;;;5048674;28;20120;-43
2022/09/19 00:58:10;;;;;;;22.33;2.38;;;10.30;99.90;;;;;;5048538;28;20044;-43
2022/09/19 01:00:36;;;;;;;22.95;1.48;;;11.00;99.90;;;;;;5049721;28;20095;-42
2022/09/19 01:03:09;;;;;;;20.40;2.35;;;10.30;99.90;;;;;;5049265;28;20044;-42
2022/09/19 01:06:13;;;;;;;14.88;1.27;;;10.30;99.90;;;;;;5049202;28;20570;-42
2022/09/19 01:08:48;;;;;;;17.70;1.77;;;10.40;99.90;;;;;;5049261;28;20139;-43
2022/09/19 01:11:37;;;;;;;24.45;1.48;;;11.00;99.90;;;;;;5049137;28;20045;-44
2022/09/19 01:14:25;;;;;;;19.10;1.77;;;10.40;99.90;;;;;;5048876;28;20041;-42
2022/09/19 01:17:05;;;;;;;22.83;3.53;;;10.40;99.90;;;;;;5048498;28;20048;-42
2022/09/19 01:20:05;;;;;;;32.47;3.13;;;10.50;99.90;;;;;;5048972;28;20432;-43
2022/09/19 01:23:06;;;;;;;28.55;3.83;;;10.50;99.90;;;;;;5048858;28;20124;-42
2022/09/19 01:25:51;;;;;;;29.67;1.90;;;10.50;99.90;;;;;;5048672;28;20047;-43
2022/09/19 01:28:25;;;;;;;29.27;2.60;;;10.60;99.90;;;;;;5048479;28;20099;-42
2022/09/19 01:34:05;;;;;;;21.77;1.92;;;10.40;99.90;;;;;;5048645;28;20136;-43
2022/09/19 01:36:41;;;;;;;22.10;1.52;;;10.40;99.90;;;;;;5047735;28;20089;-42
2022/09/19 01:39:09;;;;;;;24.77;1.80;;;10.40;99.90;;;;;;5048022;28;20468;-42
2022/09/19 01:41:35;;;;;;;26.70;1.75;;;11.30;99.90;;;;;;5048108;28;20072;-42
2022/09/19 01:44:05;;;;;;;24.27;1.90;;;10.40;99.90;;;;;;5048135;28;20126;-43
2022/09/19 01:46:48;;;;;;;17.23;1.00;;;10.20;99.90;;;;;;5047762;28;20041;-42
2022/09/19 01:49:38;;;;;;;27.45;1.40;;;10.20;99.90;;;;;;5048197;28;20048;-42
2022/09/19 01:52:21;;;;;;;24.65;2.05;;;10.20;99.90;;;;;;5048009;28;20084;-42
2022/09/19 01:55:20;;;;;;;21.65;1.73;;;10.40;99.90;;;;;;5048469;28;20036;-42
2022/09/19 01:58:06;;;;;;;21.77;1.23;;;10.30;99.90;;;;;;5047323;28;20120;-42
2022/09/19 02:00:36;;;;;;;28.48;2.95;;;10.20;99.90;;;;;;5047420;28;20059;-43
2022/09/19 02:03:37;;;;;;;29.48;1.55;;;10.20;99.90;;;;;;5048079;28;20049;-42
2022/09/19 02:06:18;;;;;;;23.00;1.35;;;10.30;99.90;;;;;;5042174;28;20052;-42
2022/09/19 02:09:32;;;;;;;20.70;1.85;;;10.70;99.90;;;;;;5047504;28;20060;-43
2022/09/19 02:12:01;;;;;;;20.38;1.60;;;10.50;99.90;;;;;;5047535;28;20495;-42
2022/09/19 02:14:31;;;;;;;23.85;2.95;;;10.30;99.90;;;;;;5029046;28;20523;-43
2022/09/19 02:17:33;;;;;;;25.00;1.73;;;10.30;99.90;;;;;;5047385;28;20056;-42
2022/09/19 02:20:12;;;;;;;38.20;2.08;;;10.30;99.90;;;;;;5033975;28;20406;-42
2022/09/19 02:22:41;;;;;;;25.25;2.25;;;10.30;99.90;;;;;;5047157;28;20132;-42
2022/09/19 02:25:15;;;;;;;24.77;1.60;;;10.20;99.90;;;;;;5047156;28;20036;-42
2022/09/19 02:27:55;;;;;;;16.33;1.30;;;10.30;99.90;;;;;;5046836;28;20041;-43
2022/09/19 02:30:21;;;;;;;17.70;1.38;;;10.20;99.90;;;;;;5047315;28;20106;-42
2022/09/19 02:32:49;;;;;;;24.65;1.65;;;10.20;99.90;;;;;;5047163;28;20130;-42
2022/09/19 02:35:38;;;;;;;28.05;2.22;;;10.90;99.90;;;;;;5046981;28;20041;-42
2022/09/19 02:38:33;;;;;;;21.83;1.80;;;10.60;99.90;;;;;;5046967;28;20101;-43
2022/09/19 02:41:10;;;;;;;26.52;1.90;;;10.40;99.90;;;;;;5040162;28;20052;-42
2022/09/19 02:43:47;;;;;;;25.25;1.73;;;10.30;99.90;;;;;;5047307;28;20552;-42
2022/09/19 02:46:26;;;;;;;28.42;1.52;;;10.20;99.90;;;;;;5046161;28;20037;-42
2022/09/19 02:49:08;;;;;;;19.75;1.52;;;10.20;99.90;;;;;;5047482;28;20128;-42
2022/09/19 02:51:48;;;;;;;27.63;1.90;;;10.20;99.90;;;;;;5046990;28;20036;-43
2022/09/19 02:54:19;;;;;;;25.25;1.88;;;10.20;99.90;;;;;;5047349;28;20048;-45
2022/09/19 02:56:47;;;;;;;18.52;1.38;;;10.60;99.90;;;;;;5046767;28;20041;-43
2022/09/19 02:59:23;;;;;;;21.88;1.55;;;10.30;99.90;;;;;;5047102;28;20041;-43
2022/09/19 03:01:57;;;;;;;19.40;1.90;;;10.60;99.90;;;;;;5047033;28;20041;-42
2022/09/19 03:04:29;;;;;;;27.75;2.50;;;10.30;99.90;;;;;;5047028;28;20040;-42
2022/09/19 03:07:11;;;;;;;21.08;1.25;;;10.90;99.90;;;;;;5046928;28;20587;-42
2022/09/19 03:09:40;;;;;;;27.48;2.63;;;10.20;99.90;;;;;;5047006;28;20053;-42
2022/09/19 03:12:14;;;;;;;24.23;1.92;;;10.30;99.90;;;;;;5047095;28;20040;-42
2022/09/19 03:14:40;;;;;;;26.50;1.85;;;10.90;99.90;;;;;;5047157;28;20049;-42
2022/09/19 03:17:07;;;;;;;18.92;1.80;;;10.70;99.90;;;;;;5046857;28;20494;-43
2022/09/19 03:19:33;;;;;;;19.42;1.55;;;11.00;99.90;;;;;;5047152;28;20036;-43
2022/09/19 03:21:59;;;;;;;20.15;1.80;;;10.30;99.90;;;;;;5047719;28;20461;-43
2022/09/19 03:24:26;;;;;;;23.10;1.38;;;10.70;99.90;;;;;;5047226;28;20052;-44
2022/09/19 03:26:52;;;;;;;32.17;1.80;;;10.40;99.90;;;;;;5046923;28;20099;-42
2022/09/19 03:29:18;;;;;;;20.35;1.20;;;10.30;99.90;;;;;;5046637;28;20036;-43
2022/09/19 03:31:45;;;;;;;15.65;1.67;;;10.90;99.90;;;;;;5046596;28;20528;-43
2022/09/19 03:34:12;;;;;;;15.77;1.08;;;11.40;99.90;;;;;;5046232;28;20080;-44
2022/09/19 03:36:40;;;;;;;24.30;1.48;;;10.30;99.90;;;;;;5046466;28;20044;-43
2022/09/19 03:39:06;;;;;;;23.23;1.17;;;10.50;99.90;;;;;;5047212;28;20041;-42
2022/09/19 03:41:32;;;;;;;11.63;1.70;;;10.00;99.90;;;;;;5046663;28;20045;-42
2022/09/19 03:44:02;;;;;;;21.73;1.15;;;10.20;99.90;;;;;;5046251;28;20048;-43
2022/09/19 03:46:30;;;;;;;16.00;1.70;;;10.10;99.90;;;;;;5046615;28;20059;-42
2022/09/19 03:48:56;;;;;;;15.20;1.00;;;10.50;99.90;;;;;;5046886;28;20398;-42
2022/09/19 03:51:23;;;;;;;20.58;1.70;;;10.30;99.90;;;;;;5046472;28;20048;-42
2022/09/19 03:53:48;;;;;;;16.38;1.23;;;10.40;99.90;;;;;;5046606;28;20334;-42
2022/09/19 03:56:16;;;;;;;20.67;1.70;;;10.10;99.90;;;;;;5046562;28;20400;-42
2022/09/19 03:58:42;;;;;;;15.70;1.52;;;10.10;99.90;;;;;;5048350;28;20037;-42
2022/09/19 04:01:09;;;;;;;14.00;1.35;;;10.20;99.90;;;;;;5050569;28;20048;-43
2022/09/19 04:03:37;;;;;;;24.95;2.03;;;10.30;99.90;;;;;;5049844;28;20122;-43
2022/09/19 04:06:04;;;;;;;17.00;1.40;;;10.40;99.90;;;;;;5050384;28;20487;-42
2022/09/19 04:08:30;;;;;;;23.35;1.77;;;10.10;99.90;;;;;;5049951;28;20072;-42
2022/09/19 04:10:56;;;;;;;18.75;1.92;;;10.20;99.90;;;;;;5050673;28;20052;-44
2022/09/19 04:13:22;;;;;;;18.95;1.50;;;10.10;99.90;;;;;;5050203;28;20041;-44
2022/09/19 04:15:51;;;;;;;24.33;1.75;;;10.10;99.90;;;;;;5050193;28;20033;-43
2022/09/19 04:18:18;;;;;;;21.88;1.25;;;10.40;99.90;;;;;;5050348;28;20041;-42
2022/09/19 04:20:45;;;;;;;18.98;1.50;;;10.20;99.90;;;;;;5050274;28;20045;-42
2022/09/19 04:23:13;;;;;;;16.48;1.60;;;10.10;99.90;;;;;;5049648;28;20056;-42
2022/09/19 04:25:39;;;;;;;18.88;2.15;;;10.10;99.90;;;;;;5049606;28;20059;-42
2022/09/19 04:28:09;;;;;;;22.38;1.85;;;10.00;99.90;;;;;;5049340;28;20041;-42
2022/09/19 04:30:35;;;;;;;28.88;2.08;;;10.30;99.90;;;;;;5049387;28;20438;-42
2022/09/19 04:33:03;;;;;;;22.75;2.10;;;10.20;99.90;;;;;;5049579;28;20087;-45
2022/09/19 04:35:34;;;;;;;26.50;1.90;;;10.20;99.90;;;;;;5049326;28;20129;-42
2022/09/19 04:38:16;;;;;;;24.02;1.65;;;10.00;99.90;;;;;;5049459;28;20607;-44
2022/09/19 04:40:46;;;;;;;16.75;1.95;;;10.10;99.90;;;;;;5049643;28;20090;-43
2022/09/19 04:43:14;;;;;;;20.45;2.30;;;10.30;99.90;;;;;;5049264;28;20047;-44
2022/09/19 04:45:42;;;;;;;28.20;3.78;;;10.20;99.90;;;;;;5049367;28;20103;-43
2022/09/19 04:48:08;;;;;;;12.13;1.48;;;10.30;99.90;;;;;;5049551;28;20762;-43
2022/09/19 04:50:35;;;;;;;22.85;1.73;;;10.30;99.90;;;;;;5049148;28;20483;-43
2022/09/19 04:53:02;;;;;;;22.70;2.22;;;10.40;99.90;;;;;;5030942;28;20044;-42
2022/09/19 04:55:29;;;;;;;25.83;2.50;;;10.40;99.90;;;;;;5048728;28;20434;-43
2022/09/19 04:57:56;;;;;;;22.30;2.55;;;10.30;99.90;;;;;;5048723;28;20112;-43
2022/09/19 05:00:41;;;;;;;22.63;2.30;;;10.30;99.90;;;;;;5048595;28;20127;-45
2022/09/19 05:03:12;;;;;;;22.77;1.92;;;10.30;99.90;;;;;;5048683;28;20080;-43
2022/09/19 05:05:44;;;;;;;26.33;1.90;;;10.20;99.90;;;;;;5048901;28;20052;-44
2022/09/19 05:08:12;;;;;;;25.20;3.05;;;10.30;99.90;;;;;;5048060;28;20110;-42
2022/09/19 05:10:38;;;;;;;17.27;2.03;;;10.30;99.90;;;;;;5047484;28;20041;-43
2022/09/19 05:13:04;;;;;;;20.48;1.70;;;10.30;99.90;;;;;;5048917;28;20477;-44
2022/09/19 05:15:30;;;;;;;30.42;2.13;;;10.30;99.90;;;;;;5048642;28;20041;-43
2022/09/19 05:17:56;;;;;;;28.88;2.20;;;10.50;99.90;;;;;;5048543;28;20090;-44
2022/09/19 05:20:26;;;;;;;14.52;1.52;;;10.30;99.90;;;;;;5048342;28;20084;-42
2022/09/19 05:22:58;;;;;;;18.25;1.40;;;11.40;99.90;;;;;;5048636;28;20394;-44
2022/09/19 05:25:28;;;;;;;9.77;1.42;;;10.60;99.90;;;;;;5048912;28;20045;-42
2022/09/19 05:27:56;;;;;;;19.95;1.60;;;10.50;99.90;;;;;;5048927;28;20037;-44
2022/09/19 05:30:24;;;;;;;23.33;1.80;;;10.50;99.90;;;;;;5048780;28;20044;-43
2022/09/19 05:32:51;;;;;;;26.65;1.63;;;11.50;99.90;;;;;;5048479;28;20426;-42
2022/09/19 05:35:17;;;;;;;38.60;2.78;;;11.40;99.90;;;;;;5048247;28;20095;-43
2022/09/19 05:37:45;;;;;;;28.58;2.20;;;10.50;99.90;;;;;;5048287;28;20090;-43
2022/09/19 05:40:11;;;;;;;26.92;1.55;;;10.60;99.90;;;;;;5048453;28;20352;-43
2022/09/19 05:42:41;;;;;;;26.67;2.30;;;10.70;99.90;;;;;;5048436;28;20581;-42
2022/09/19 05:45:10;;;;;;;25.60;2.60;;;10.90;99.90;;;;;;5048925;28;20136;-44
2022/09/19 05:47:39;;;;;;;21.05;1.85;;;11.00;99.90;;;;;;5048044;28;20059;-42
2022/09/19 05:50:11;;;;;;;20.38;1.60;;;10.50;99.90;;;;;;5048644;28;20053;-42
2022/09/19 05:55:23;;;;;;;24.73;1.45;;;10.30;99.90;;;;;;5047123;28;20632;-42
2022/09/19 05:57:51;;;;;;;26.98;1.98;;;10.80;99.90;;;;;;5047364;28;20036;-43
2022/09/19 06:00:19;;;;;;;24.05;2.45;;;10.20;99.90;;;;;;5048284;28;20445;-42
2022/09/19 06:02:51;;;;;;;33.22;2.35;;;11.30;99.90;;;;;;5047144;28;20048;-42
2022/09/19 06:05:17;;;;;;;;;;;10.20;99.90;;;;;;5048564;28;20159;-42
2022/09/19 06:07:43;;;;;;;13.65;1.35;;;10.70;99.90;;;;;;5047394;28;20344;-42
2022/09/19 06:10:09;;;;;;;20.30;2.35;;;10.80;99.90;;;;;;5047328;28;20124;-43
2022/09/19 06:12:34;;;;;;;32.42;2.30;;;10.40;99.90;;;;;;5047465;28;20040;-42
2022/09/19 06:15:00;;;;;;;19.17;1.73;;;10.40;99.90;;;;;;5047986;28;20088;-42
2022/09/19 06:17:27;;;;;;;28.88;3.22;;;10.90;99.90;;;;;;5047693;28;20040;-43
2022/09/19 06:19:52;;;;;;;22.55;2.58;;;10.60;99.90;;;;;;5047555;28;20056;-42
2022/09/19 06:22:18;;;;;;;26.35;2.83;;;10.80;99.90;;;;;;5047181;28;20041;-42
2022/09/19 06:24:44;;;;;;;40.55;4.15;;;10.80;99.90;;;;;;5047404;28;20053;-43
2022/09/19 06:27:10;;;;;;;26.52;2.47;;;10.80;99.90;;;;;;5047686;28;20048;-42
2022/09/19 06:29:35;;;;;;;26.05;2.33;;;10.90;99.90;;;;;;5046865;28;20051;-43
2022/09/19 06:32:02;;;;;;;22.08;2.35;;;11.00;99.90;;;;;;5047000;28;20045;-42
2022/09/19 06:34:28;;;;;;;22.38;2.17;;;11.90;99.90;;;;;;5046840;28;20041;-43
2022/09/19 06:36:53;;;;;;;20.48;2.05;;;11.10;99.90;;;;;;5047061;28;20411;-44
2022/09/19 06:39:19;;;;;;;24.85;2.65;;;11.20;99.90;;;;;;5047235;28;20390;-43
2022/09/19 06:41:47;;;;;;;35.58;2.80;;;11.10;99.90;;;;;;5047211;28;20483;-43
2022/09/19 06:44:13;;;;;;;21.75;1.80;;;11.80;99.90;;;;;;5047056;28;20045;-42
2022/09/19 06:46:39;;;;;;;29.52;3.13;;;11.20;99.90;;;;;;5046740;28;20542;-43
2022/09/19 06:49:07;;;;;;;23.25;2.20;;;11.10;99.90;;;;;;5047257;28;20376;-42
2022/09/19 06:51:33;;;;;;;26.23;4.53;;;11.40;99.90;;;;;;5047258;28;20120;-43
2022/09/19 06:54:00;;;;;;;20.48;1.73;;;11.20;99.90;;;;;;5046749;28;20453;-42
2022/09/19 06:56:25;;;;;;;28.48;3.70;;;11.40;99.90;;;;;;5046659;28;20079;-44
2022/09/19 06:58:51;;;;;;;26.08;2.60;;;11.60;99.90;;;;;;5046772;28;20451;-42
2022/09/19 07:01:17;;;;;;;26.08;2.20;;;11.90;99.90;;;;;;5028766;28;20045;-43
2022/09/19 07:03:43;;;;;;;23.95;2.70;;;12.10;99.90;;;;;;5046913;28;20103;-42
2022/09/19 07:06:09;;;;;;;25.77;2.22;;;12.40;99.90;;;;;;5047176;28;20055;-43
2022/09/19 07:08:35;;;;;;;21.17;1.73;;;12.40;99.90;;;;;;5028224;28;20052;-42
2022/09/19 07:11:01;;;;;;;13.65;1.00;;;12.40;99.90;;;;;;5046250;28;20045;-43
2022/09/19 07:13:26;;;;;;;17.77;1.92;;;12.40;99.90;;;;;;5046708;28;20117;-43
2022/09/19 07:15:52;;;;;;;17.75;2.45;;;12.50;99.90;;;;;;5046826;28;20073;-43
2022/09/19 07:18:18;;;;;;;20.60;1.55;;;12.50;99.90;;;;;;5046479;28;20040;-43
2022/09/19 07:20:44;;;;;;;24.58;2.47;;;12.60;99.90;;;;;;5046906;28;20457;-43
2022/09/19 07:23:15;;;;;;;21.38;1.98;;;12.60;99.90;;;;;;5047085;28;20119;-43
2022/09/19 07:25:43;;;;;;;27.52;2.80;;;12.70;99.90;;;;;;5046900;28;20055;-42
2022/09/19 07:28:14;;;;;;;22.67;2.38;;;12.80;99.90;;;;;;5046812;28;20428;-43
2022/09/19 07:30:43;;;;;;;17.38;1.80;;;13.00;99.90;;;;;;5046164;28;20431;-42
2022/09/19 07:33:11;;;;;;;19.42;2.63;;;13.50;99.90;;;;;;5045950;28;20041;-43
2022/09/19 07:35:37;;;;;;;20.35;1.95;;;13.70;99.90;;;;;;5046517;28;20398;-42
2022/09/19 07:38:04;;;;;;;28.08;2.88;;;13.60;99.90;;;;;;5046290;28;20604;-42
2022/09/19 07:40:33;;;;;;;22.73;2.42;;;13.70;99.90;;;;;;5046450;28;20077;-43
2022/09/19 07:43:01;;;;;;;20.02;1.30;;;13.60;99.90;;;;;;5046865;28;20037;-43
2022/09/19 07:45:27;;;;;;;20.83;2.45;;;13.30;99.90;;;;;;5046691;28;20045;-43
2022/09/19 07:47:55;;;;;;;20.10;1.70;;;13.40;99.90;;;;;;5046515;28;20442;-42
2022/09/19 07:50:21;;;;;;;21.60;1.95;;;13.40;99.90;;;;;;5046155;28;20045;-43
2022/09/19 07:52:46;;;;;;;14.00;1.52;;;13.40;99.90;;;;;;5046040;28;20049;-42
2022/09/19 07:55:15;;;;;;;17.17;1.75;;;13.80;99.90;;;;;;5046083;28;20036;-43
2022/09/19 07:57:55;;;;;;;18.30;1.20;;;13.50;99.90;;;;;;5046744;28;20092;-44
2022/09/19 08:00:25;;;;;;;13.52;1.35;;;13.50;99.90;;;;;;5045719;28;20037;-44
2022/09/19 08:03:00;;;;;;;20.65;2.22;;;13.50;99.90;;;;;;5045814;28;20114;-44
2022/09/19 08:05:29;;;;;;;15.60;1.73;;;13.60;99.90;;;;;;5045866;28;20048;-42
2022/09/19 08:07:57;;;;;;;15.32;1.75;;;13.70;99.90;;;;;;5045406;28;20057;-44
2022/09/19 08:10:23;;;;;;;17.45;1.92;;;14.30;99.90;;;;;;5045346;28;20088;-43
2022/09/19 08:12:48;;;;;;;16.00;1.23;;;14.70;99.90;;;;;;5045405;28;20077;-43
2022/09/19 08:15:16;;;;;;;17.13;3.28;;;14.80;99.90;;;;;;5045806;28;20045;-43
2022/09/19 08:17:57;;;;;;;23.10;1.75;;;14.80;99.90;;;;;;5046094;28;20546;-43
2022/09/19 08:20:23;;;;;;;17.25;1.95;;;14.20;99.90;;;;;;5046300;28;20049;-42
2022/09/19 08:22:49;;;;;;;9.43;0.90;;;14.80;99.90;;;;;;5045924;28;20041;-47
2022/09/19 08:25:16;;;;;;;19.75;1.55;;;15.10;99.90;;;;;;5045419;28;20402;-43
2022/09/19 08:27:45;;;;;;;8.95;0.90;;;15.40;99.90;;;;;;5045652;28;20102;-42
2022/09/19 08:30:10;;;;;;;14.93;1.15;;;15.40;99.90;;;;;;5045623;28;20045;-43
2022/09/19 08:32:36;;;;;;;11.50;0.60;;;15.30;99.90;;;;;;5045813;28;20060;-42
2022/09/19 08:35:02;;;;;;;17.15;1.33;;;15.20;99.90;;;;;;5045811;28;20156;-43
2022/09/19 08:37:30;;;;;;;25.73;2.45;;;15.00;99.90;;;;;;5046708;28;20040;-44
2022/09/19 08:43:07;;;;;;;10.43;1.52;;;15.60;99.90;;;;;;5030966;28;20061;-54
2022/09/19 08:45:36;;;;;;;12.27;0.98;;;16.30;99.90;;;;;;5050146;28;20041;-50
2022/09/19 08:48:07;;;;;;;17.92;1.83;;;17.00;99.90;;;;;;5044842;28;20653;-43
2022/09/19 08:50:36;;;;;;;10.57;1.27;;;17.40;99.90;;;;;;5045978;28;20041;-47
2022/09/19 08:53:06;;;;;;;11.75;1.23;;;17.20;99.90;;;;;;5047738;28;20699;-52
2022/09/19 08:55:34;;;;;;;8.73;1.10;;;17.20;99.90;;;;;;5049505;28;20429;-44
2022/09/19 08:58:04;;;;;;;7.72;0.80;;;17.30;99.90;;;;;;5051260;28;20084;-44
2022/09/19 09:00:37;;;;;;;6.63;0.95;;;17.80;99.90;;;;;;5051639;28;20048;-48
2022/09/19 09:03:38;;;;;;;6.70;0.68;;;18.50;99.90;;;;;;5053002;28;20043;-55
2022/09/19 09:06:24;;;;;;;12.13;1.15;;;19.30;99.90;;;;;;5047361;28;20057;-53
2022/09/19 09:09:16;;;;;;;7.93;0.60;;;19.30;99.90;;;;;;5047703;28;20483;-58
2022/09/19 09:12:18;;;;;;;13.90;2.03;;;19.10;99.90;;;;;;5029735;28;20388;-60
2022/09/19 09:15:04;;;;;;;9.55;0.80;;;18.90;99.90;;;;;;5047715;28;20051;-57
2022/09/19 09:17:53;;;;;;;8.00;1.40;;;18.80;99.90;;;;;;5054902;28;20044;-56
2022/09/19 09:20:39;;;;;;;12.07;0.80;;;19.20;99.90;;;;;;5031481;28;20052;-58
2022/09/19 09:23:15;;;;;;;8.75;1.20;;;19.90;99.90;;;;;;5047478;28;20049;-59
2022/09/19 09:25:46;;;;;;;7.47;0.90;;;20.20;99.90;;;;;;5047591;28;20487;-58
2022/09/19 09:28:50;;;;;;;9.57;1.05;;;21.40;99.90;;;;;;5054197;28;20044;-58
2022/09/19 09:31:24;;;;;;;9.65;1.58;;;21.50;99.90;;;;;;4969584;28;20141;-57
2022/09/19 09:34:18;;;;;;;10.57;1.02;;;21.20;99.90;;;;;;5036821;28;20177;-54
2022/09/19 09:36:59;;;;;;;9.10;0.70;;;20.90;99.90;;;;;;5046971;28;20064;-49
2022/09/19 09:39:32;;;;;;;5.28;0.90;;;20.50;99.90;;;;;;5047310;28;20048;-56
2022/09/19 09:42:01;;;;;;;10.18;1.42;;;20.20;99.90;;;;;;5051364;28;20048;-44
2022/09/19 09:44:58;;;;;;;7.93;1.08;;;19.70;99.90;;;;;;5047603;28;20036;-43
2022/09/19 09:47:50;;;;;;;12.13;0.70;;;19.50;99.90;;;;;;5049611;28;20041;-42
2022/09/19 09:50:48;;;;;;;12.05;1.42;;;19.00;99.90;;;;;;5030918;28;20139;-43
2022/09/19 09:53:33;;;;;;;11.45;1.38;;;18.50;99.90;;;;;;5048799;28;20862;-45
2022/09/19 09:56:19;;;;;;;14.75;1.30;;;18.00;99.90;;;;;;5048503;28;20383;-44
2022/09/19 10:03:34;;;;;;;10.68;1.25;;;18.00;99.90;;;;;;5049122;28;20383;-44
2022/09/19 10:05:15;;;;;;;13.63;1.30;;;19.00;99.90;;;;;;5048509;28;20048;-43
2022/09/19 10:08:04;;;;;;;9.85;1.63;;;19.30;99.90;;;;;;5030485;28;20064;-44
2022/09/19 10:10:32;;;;;;;9.98;1.00;;;19.20;99.90;;;;;;5048708;28;20048;-43
2022/09/19 10:13:02;;;;;;;8.75;1.17;;;19.10;99.90;;;;;;5046945;28;20076;-55
2022/09/19 10:15:31;;;;;;;4.88;0.20;;;19.20;99.90;;;;;;5010936;28;20122;-55
2022/09/19 10:18:09;;;;;;;6.93;0.55;;;18.90;99.90;;;;;;5027770;28;20106;-56
2022/09/19 10:20:49;;;;;;;33.80;2.05;;;18.50;99.90;;;;;;5027945;28;20080;-56
2022/09/19 10:23:24;;;;;;;13.85;1.08;;;17.80;99.90;;;;;;5027580;28;20061;-54
2022/09/19 10:25:59;;;;;;;10.27;0.85;;;17.00;99.90;;;;;;5027731;28;20048;-56
2022/09/19 10:28:37;;;;;;;10.25;0.88;;;16.40;99.90;;;;;;5046147;28;20049;-57
2022/09/19 10:31:04;;;;;;;2.38;0.20;;;16.30;99.90;;;;;;5010933;28;20049;-55
2022/09/19 10:33:47;;;;;;;14.35;0.77;;;15.60;99.90;;;;;;5027549;28;20909;-55
2022/09/19 10:36:28;;;;;;;4.72;1.08;;;15.30;99.90;;;;;;5027451;28;20067;-55
2022/09/19 10:39:00;;;;;;;4.70;0.30;;;15.40;99.90;;;;;;5029219;28;20060;-41
2022/09/19 10:41:32;;;;;;;6.32;0.50;;;14.70;99.90;;;;;;5046073;28;20050;-42
2022/09/19 10:44:00;;;;;;;11.10;0.60;;;14.40;99.90;;;;;;5030813;28;20048;-52
2022/09/19 10:46:42;;;;;;;5.15;0.63;;;14.20;99.90;;;;;;5027441;28;20057;-52
2022/09/19 10:49:25;;;;;;;5.97;1.48;;;14.10;99.90;;;;;;5045600;28;20040;-48
2022/09/19 10:51:52;;;;;;;7.60;0.65;;;14.00;99.90;;;;;;5045859;28;20052;-42
2022/09/19 10:54:31;;;;;;;6.32;0.50;;;14.10;99.90;;;;;;5045909;28;20863;-52
2022/09/19 10:57:01;;;;;;;9.10;0.68;;;14.00;99.90;;;;;;5045987;28;20055;-43
2022/09/19 10:59:36;;;;;;;13.63;1.05;;;13.90;99.90;;;;;;5046104;28;20052;-45
2022/09/19 11:02:26;;;;;;;12.48;0.80;;;14.00;99.90;;;;;;5027903;28;20047;-46
2022/09/19 11:05:00;;;;;;;14.00;1.50;;;14.00;99.90;;;;;;5045571;28;20123;-44
2022/09/19 11:07:30;;;;;;;11.10;1.40;;;14.10;99.90;;;;;;5045013;28;20105;-43
2022/09/19 11:10:03;;;;;;;10.75;0.77;;;14.30;99.90;;;;;;5045759;28;20056;-48
2022/09/19 11:12:32;;;;;;;10.93;1.50;;;14.50;99.90;;;;;;5027523;28;20048;-46
2022/09/19 11:14:59;;;;;;;11.40;1.08;;;14.80;99.90;;;;;;5044320;28;20604;-43
2022/09/19 11:17:31;;;;;;;8.88;1.35;;;14.90;99.90;;;;;;5048201;28;20045;-46
2022/09/19 11:20:16;;;;;;;14.32;1.92;;;14.90;99.90;;;;;;5027386;28;20099;-47
2022/09/19 11:23:13;;;;;;;14.48;1.42;;;15.10;99.90;;;;;;5045005;28;20045;-51
2022/09/19 11:25:51;;;;;;;15.80;1.23;;;15.20;99.90;;;;;;5030961;28;20135;-46
2022/09/19 11:28:49;;;;;;;9.48;1.10;;;15.40;99.90;;;;;;5051441;28;20055;-47
2022/09/19 11:31:41;;;;;;;9.13;0.93;;;15.70;99.90;;;;;;5043597;28;20059;-50
2022/09/19 11:34:33;;;;;;;6.45;0.73;;;15.90;99.90;;;;;;5043000;28;20037;-45
2022/09/19 11:37:41;;;;;;;5.83;0.87;;;16.00;99.90;;;;;;5043722;28;20049;-49
2022/09/19 11:40:42;;;;;;;7.85;0.57;;;16.00;99.90;;;;;;5034584;28;20064;-52
2022/09/19 11:43:44;;;;;;;11.48;1.50;;;15.90;99.90;;;;;;5026594;28;20059;-52
2022/09/19 11:46:33;;;;;;;8.13;0.80;;;15.90;99.90;;;;;;5044653;28;20391;-52
2022/09/19 11:48:58;;;;;;;10.40;1.50;;;16.40;99.90;;;;;;5046184;28;20148;-51
2022/09/19 11:51:41;;;;;;;5.95;0.63;;;15.90;99.90;;;;;;5049053;28;20981;-45
2022/09/19 11:54:21;;;;;;;;;;;15.90;99.90;;;;;;5046248;28;20612;-51
2022/09/19 11:57:36;;;;;;;13.93;0.90;;;15.90;99.90;;;;;;5045259;28;19917;-50
2022/09/19 12:00:20;;;;;;;13.45;1.85;;;15.90;99.90;;;;;;4964045;28;20066;-55
2022/09/19 12:02:58;;;;;;;15.05;1.45;;;16.00;99.90;;;;;;5039330;28;20129;-46
2022/09/19 12:05:49;;;;;;;10.43;0.75;;;16.00;99.90;;;;;;5045080;28;20053;-43
2022/09/19 12:08:29;;;;;;;7.57;0.90;;;16.20;99.90;;;;;;5045202;28;20065;-45
2022/09/19 12:10:58;;;;;;;8.48;0.50;;;16.50;99.90;;;;;;5046368;28;20540;-41
2022/09/19 12:13:53;;;;;;;8.02;1.10;;;16.50;99.90;;;;;;5043907;28;20076;-44
2022/09/19 12:16:50;;;;;;;12.18;1.27;;;16.30;99.90;;;;;;5044596;28;20045;-44
2022/09/19 12:19:24;;;;;;;9.77;0.90;;;16.10;99.90;;;;;;5024618;28;20057;-48
2022/09/19 12:21:59;;;;;;;9.52;0.77;;;15.90;99.90;;;;;;5048055;28;20053;-48
2022/09/19 12:24:54;;;;;;;16.45;0.93;;;15.90;99.90;;;;;;5047885;28;20053;-45
2022/09/19 12:27:36;;;;;;;11.38;1.23;;;15.90;99.90;;;;;;5047793;28;20091;-45
2022/09/19 12:30:12;;;;;;;16.02;1.27;;;15.90;99.90;;;;;;5029553;28;20041;-50
2022/09/19 12:32:56;;;;;;;7.07;1.23;;;15.70;99.90;;;;;;4995482;28;20046;-53
2022/09/19 12:35:55;;;;;;;9.93;0.88;;;15.50;99.90;;;;;;5005613;28;20178;-47
2022/09/19 12:38:44;;;;;;;9.60;0.50;;;15.30;99.90;;;;;;5005025;28;20080;-47
2022/09/19 12:41:20;;;;;;;7.30;0.80;;;15.30;99.90;;;;;;5005927;28;20046;-54
2022/09/19 12:44:13;;;;;;;7.22;0.75;;;15.40;99.90;;;;;;5006033;28;20093;-55
2022/09/19 12:46:54;;;;;;;8.65;0.57;;;15.20;99.90;;;;;;5005953;28;20727;-51
2022/09/19 12:49:30;;;;;;;12.63;0.93;;;15.10;99.90;;;;;;5005660;28;20049;-54
2022/09/19 12:52:02;;;;;;;11.60;1.15;;;14.90;99.90;;;;;;5006060;28;20133;-46
2022/09/19 12:55:00;;;;;;;8.30;0.60;;;14.80;99.90;;;;;;5004231;28;20050;-45
2022/09/19 12:57:36;;;;;;;9.05;1.10;;;14.80;99.90;;;;;;5005249;28;20038;-46
2022/09/19 13:00:03;;;;;;;10.05;0.98;;;15.00;99.90;;;;;;4987153;28;20511;-43
2022/09/19 13:02:34;;;;;;;11.13;1.45;;;15.20;99.90;;;;;;5004279;28;21019;-44
2022/09/19 13:05:21;;;;;;;8.77;1.05;;;15.30;99.90;;;;;;5004766;28;20042;-42
2022/09/19 13:07:56;;;;;;;14.15;1.55;;;15.20;99.90;;;;;;5009389;28;20049;-41
2022/09/19 13:10:26;;;;;;;16.65;2.75;;;15.10;99.90;;;;;;5006402;28;20462;-44
2022/09/19 13:13:18;;;;;;;8.82;0.82;;;15.10;99.90;;;;;;5024932;28;20041;-48
2022/09/19 13:15:58;;;;;;;11.60;1.13;;;15.10;99.90;;;;;;5010608;28;20122;-49
2022/09/19 13:24:12;;;;;;;10.65;1.30;;;14.80;99.90;;;;;;5025454;28;20127;-50
2022/09/19 13:26:38;;;;;;;14.23;1.08;;;14.80;99.90;;;;;;5026969;28;20037;-43
2022/09/19 13:29:27;;;;;;;14.68;1.30;;;14.90;99.90;;;;;;5025706;28;20126;-50
2022/09/19 13:31:55;;;;;;;8.02;0.55;;;15.10;99.90;;;;;;5012199;28;20527;-47
2022/09/19 13:34:33;;;;;;;10.55;0.77;;;15.20;99.90;;;;;;5015844;28;20049;-53